Airfield :
LOGIN :

Register | Disclaimer

   EN    FR    IT 

 










Legend :    VFR   Marginal VFR   IFR   Intensive IFR   Very Intensive IFR
Visi :
Ceiling :
>= 8 km
>= 3000ft
5 to 8 km
1000 to 3000 ft
1500m to 5 km
500 to 1000 ft
800 to 1500m
200 to 500 ft
< 800m
< 200 ft
Symbols :   Thunderstorms  Fog  Heavy snow  Heavy precipitations  Wind > 20 kt
SIGMETs :     Misc.  Thunderstorms  Icing  Turbulence  Mountain Waves  Volcanic Ashes






- Airport Elevation : 49 ft
- IATA code : AOI


LIPY - Ancona Falconara

CURRENT METAR :
  • 181850Z AUTO VRB02KT 9999 NCD 27/16 Q1016

EXPIRED METARs :
  • 181820Z AUTO VRB02KT 9999 NCD 28/16 Q1016
  • 181750Z AUTO 15003KT 100V190 9999 NCD 29/16 Q1016
  • 181720Z AUTO 15005KT 110V190 9999 NCD 29/16 Q1016
  • 181650Z AUTO 14005KT 090V200 9999 NCD 30/16 Q1016
  • 181620Z AUTO 10006KT 060V140 9999 NCD 30/18 Q1016
  • 181550Z AUTO 12007KT 070V160 9999 NCD 30/16 Q1016
  • 181520Z AUTO 08005KT 030V140 9999 NCD 30/20 Q1016
  • 181450Z AUTO 07009KT 9999 NCD 29/20 Q1016
  • 181420Z AUTO 08010KT 9999 NCD 29/20 Q1016

TAF TAF LIPY
Valid from the 18 at 18:00 until the 19 at 18:00 UTC


181700Z 1818/1918 12010KT CAVOK
BECMG 1818/1820 18010KT
BECMG 1900/1902 VRB05KT
BECMG 1909/1911 10010KT



MET'MAP, your aeronautical weather chart ! - Copyright ORBIFLY December 2007 - Disclaimer

ORBIFLY MET'MAP TEAM :

Programming & Development : Alexandra Zaïnal
Original concept : Baudouin d'Aumeries
Technical & hardware support : Manuel Goepfert
Assistance : Marc-Olivier Méhu




SOURCES & CREDITS :

   NOAA